West Woodward Airport
KWWR : rendu visible

Aérodrome :











RETROUVEZ-NOUS SUR...

 
LOGIN :

S'inscrire | Disclaimer

   EN    FR    IT 

 









Légende :    VFR   VFR Marginal   IFR   IFR Intensif   IFR Très Intensif
Visi : 
Plafond : 
>= 8 km
>= 3000ft
5 à 8 km
1000 à 3000 ft
1500m à 5 km
500 à 1000 ft
800 à 1500m
200 à 500 ft
< 800m
< 200 ft
Symboles :   Orages  Brouillard  Fortes neiges  Fortes précipitations  Vent > 20 kt






- Altitude de l'aérodrome : 2189 ft


KWWR - West Woodward

DERNIER METAR :
  • 241335Z AUTO 32017G27KT 10SM OVC008 04/03 A2976 RMK AO2

METARs EXPIRÉS :
  • 241315Z AUTO 32020G28KT 10SM OVC008 03/03 A2974 RMK AO2
  • 241255Z AUTO 32019G26KT 10SM -DZ OVC008 04/03 A2973 RMK AO2
  • 241235Z AUTO 33018G27KT 10SM OVC008 04/03 A2972 RMK AO2
  • 241215Z AUTO 33019G28KT 10SM OVC008 04/03 A2970 RMK AO2
  • 241155Z AUTO 33018G29KT 10SM DZ OVC008 04/03 A2969 RMK AO2 P0001
  • 241135Z AUTO 33023G32KT 10SM RA OVC008 04/03 A2968 RMK AO2 P0001
  • 241115Z AUTO 32024G31KT 10SM -RA OVC008 04/03 A2967 RMK AO2 P0001
  • 241055Z AUTO 32023G29KT 10SM -RA OVC008 05/04 A2966 RMK AO2 P0003

TAF KWWR
Valide du 24 à 12h jusqu'au 25 à 12h UTC


241128Z 2412/2512 32022G30KT P6SM -RA OVC008
FM241900 34012G19KT P6SM OVC025
FM250100 33018G26KT P6SM BKN050
FM250400 30010KT P6SM SCT100



MET'MAP, la Météo Aéronautique d'un coup d'oeil ! - Copyright ORBIFLY Décembre 2007 - Disclaimer

ORBIFLY MET'MAP TEAM :

Programmation & Développement : Alexandra Zaïnal
Sur une idée originale de : Baudouin d'Aumeries
Assistance à la programmation : Marc-Olivier Méhu
Soutien technique & logistique : Manuel Goepfert

Contact : metmap@orbifly.com




SOURCES & CREDITS :

   NOAA       Earth
Advisory